Time;durP1;ratioP1;P1;durP2;ratioP2;P2;SDS_P1;SDS_P2;PMS_P1;PMS_P2;Temp;Humidity;BMP_temperature;BMP_pressure;BME280_temperature;BME280_humidity;BME280_pressure;Samples;Min_cycle;Max_cycle;Signal;HPM_P1;HPM_P2
2023/10/21 00:01:37;;;;;;;204.75;60.25;;;8.40;99.90;;;;;;4975003;28;20030;-47
2023/10/21 00:04:03;;;;;;;169.38;53.38;;;8.50;99.90;;;;;;4992444;28;20109;-49
2023/10/21 00:06:28;;;;;;;229.85;61.88;;;8.50;99.90;;;;;;4992095;28;20027;-50
2023/10/21 00:08:54;;;;;;;203.98;61.63;;;8.50;99.90;;;;;;4992422;28;20081;-50
2023/10/21 00:11:19;;;;;;;195.60;57.78;;;8.50;99.90;;;;;;4992226;28;20030;-50
2023/10/21 00:13:45;;;;;;;148.15;49.53;;;8.50;99.90;;;;;;4992457;28;20077;-50
2023/10/21 00:16:11;;;;;;;178.20;56.58;;;8.60;99.90;;;;;;4992130;28;20096;-49
2023/10/21 00:18:36;;;;;;;155.93;50.50;;;8.60;99.90;;;;;;4992494;28;20607;-51
2023/10/21 00:21:03;;;;;;;152.82;51.65;;;8.60;99.90;;;;;;4992036;28;20042;-49
2023/10/21 00:23:29;;;;;;;219.98;62.60;;;8.60;99.90;;;;;;4992222;28;20335;-50
2023/10/21 00:25:55;;;;;;;129.70;46.03;;;8.60;99.90;;;;;;4991794;28;20054;-49
2023/10/21 00:28:20;;;;;;;176.18;55.65;;;8.60;99.90;;;;;;4991940;28;20377;-49
2023/10/21 00:30:47;;;;;;;263.42;68.60;;;8.60;99.90;;;;;;4992079;28;20102;-51
2023/10/21 00:33:13;;;;;;;248.60;64.72;;;8.60;99.90;;;;;;4974323;28;20468;-50
2023/10/21 00:35:39;;;;;;;170.68;55.05;;;8.60;99.90;;;;;;4991490;28;20057;-51
2023/10/21 00:38:04;;;;;;;241.57;64.78;;;8.60;99.90;;;;;;4992081;28;20038;-50
2023/10/21 00:40:30;;;;;;;166.95;54.95;;;8.60;99.90;;;;;;4991814;28;20411;-50
2023/10/21 00:42:55;;;;;;;136.98;48.10;;;8.60;99.90;;;;;;4991781;28;20037;-51
2023/10/21 00:45:21;;;;;;;194.30;59.65;;;8.70;99.90;;;;;;4991519;28;20602;-49
2023/10/21 00:47:46;;;;;;;197.27;59.53;;;8.70;99.90;;;;;;4991173;28;20022;-49
2023/10/21 00:50:12;;;;;;;277.33;67.38;;;8.70;99.90;;;;;;4991512;28;20030;-51
2023/10/21 00:52:48;;;;;;;277.85;68.70;;;8.70;99.90;;;;;;4973918;28;20033;-49
2023/10/21 00:55:14;;;;;;;276.85;65.18;;;8.60;99.90;;;;;;4991791;28;20023;-50
2023/10/21 00:57:40;;;;;;;227.60;65.53;;;8.60;99.90;;;;;;4991577;28;20097;-50
2023/10/21 01:00:11;;;;;;;213.02;58.97;;;8.60;99.90;;;;;;4991385;28;20125;-51
2023/10/21 01:02:41;;;;;;;259.52;66.20;;;8.60;99.90;;;;;;4990858;28;20025;-50
2023/10/21 01:05:07;;;;;;;249.68;64.43;;;8.60;99.90;;;;;;4973552;28;20039;-51
2023/10/21 01:07:34;;;;;;;255.77;63.58;;;8.60;99.90;;;;;;4990708;28;20058;-49
2023/10/21 01:10:03;;;;;;;229.07;63.17;;;8.60;99.90;;;;;;4973323;28;20413;-51
2023/10/21 01:12:30;;;;;;;217.60;62.25;;;8.70;99.90;;;;;;4991076;28;20085;-49
2023/10/21 01:14:55;;;;;;;170.80;54.30;;;8.60;99.90;;;;;;4991181;28;20120;-51
2023/10/21 01:17:21;;;;;;;214.77;60.75;;;8.60;99.90;;;;;;4990799;28;20101;-48
2023/10/21 01:19:46;;;;;;;247.13;64.13;;;8.60;99.90;;;;;;4990995;28;20440;-51
2023/10/21 01:22:12;;;;;;;261.90;65.22;;;8.60;99.90;;;;;;4990576;28;20045;-51
2023/10/21 01:24:37;;;;;;;170.27;58.08;;;8.60;99.90;;;;;;4973177;28;20030;-50
2023/10/21 01:27:03;;;;;;;180.27;57.63;;;8.60;99.90;;;;;;4991037;28;20693;-47
2023/10/21 01:29:28;;;;;;;202.90;62.58;;;8.60;99.90;;;;;;4990885;28;20077;-50
2023/10/21 01:31:54;;;;;;;157.45;52.13;;;8.70;99.90;;;;;;4990721;28;20030;-52
2023/10/21 01:34:20;;;;;;;279.10;64.75;;;8.70;99.90;;;;;;4990501;28;20038;-50
2023/10/21 01:36:46;;;;;;;229.80;62.20;;;8.70;99.90;;;;;;4990512;28;20038;-49
2023/10/21 01:39:12;;;;;;;169.93;55.17;;;8.70;99.90;;;;;;4991555;28;20026;-50
2023/10/21 01:41:38;;;;;;;225.80;61.22;;;8.70;99.90;;;;;;4990678;28;20494;-50
2023/10/21 01:44:04;;;;;;;181.85;60.08;;;8.70;99.90;;;;;;4990446;28;20080;-50
2023/10/21 01:46:30;;;;;;;247.93;66.72;;;8.70;99.90;;;;;;4990566;28;20026;-50
2023/10/21 01:48:55;;;;;;;216.73;64.03;;;8.70;99.90;;;;;;4990436;28;20101;-50
2023/10/21 01:51:21;;;;;;;263.48;67.45;;;8.70;99.90;;;;;;4990670;28;20054;-50
2023/10/21 01:53:46;;;;;;;254.13;65.50;;;8.70;99.90;;;;;;4990492;28;20030;-50
2023/10/21 01:56:12;;;;;;;175.30;55.28;;;8.70;99.90;;;;;;4990100;28;20030;-50
2023/10/21 01:58:37;;;;;;;158.23;54.10;;;8.80;99.90;;;;;;4990097;28;20041;-49
2023/10/21 02:01:11;;;;;;;156.93;53.90;;;8.80;99.90;;;;;;4972793;28;20080;-50
2023/10/21 02:03:37;;;;;;;167.90;53.80;;;8.80;99.90;;;;;;4990262;28;20396;-49
2023/10/21 02:06:06;;;;;;;178.30;58.20;;;8.80;99.90;;;;;;4990254;28;20053;-49
2023/10/21 02:08:32;;;;;;;173.05;56.85;;;8.80;99.90;;;;;;4990273;28;20026;-49
2023/10/21 02:10:57;;;;;;;223.88;62.92;;;8.80;99.90;;;;;;4990238;28;20025;-48
2023/10/21 02:13:23;;;;;;;169.18;54.67;;;8.80;99.90;;;;;;4990003;28;20073;-50
2023/10/21 02:15:50;;;;;;;152.43;52.75;;;8.90;99.90;;;;;;4989767;28;20026;-49
2023/10/21 02:18:16;;;;;;;176.57;53.40;;;8.90;99.90;;;;;;4989870;28;20026;-47
2023/10/21 02:20:43;;;;;;;255.23;64.05;;;8.90;99.90;;;;;;4990013;28;20567;-50
2023/10/21 02:23:08;;;;;;;215.90;61.50;;;8.90;99.90;;;;;;4989964;28;20092;-48
2023/10/21 02:25:34;;;;;;;180.57;58.92;;;8.90;99.90;;;;;;4989732;28;20026;-49
2023/10/21 02:28:03;;;;;;;256.58;64.70;;;8.90;99.90;;;;;;4990030;28;20418;-48
2023/10/21 02:30:29;;;;;;;169.05;55.60;;;8.90;99.90;;;;;;4989942;28;20026;-48
2023/10/21 02:32:54;;;;;;;140.43;51.15;;;8.90;99.90;;;;;;4989682;28;20050;-50
2023/10/21 02:35:20;;;;;;;222.50;65.15;;;8.90;99.90;;;;;;4989857;28;20538;-50
2023/10/21 02:37:47;;;;;;;266.50;69.38;;;8.90;99.90;;;;;;4972182;28;20030;-49
2023/10/21 02:40:15;;;;;;;224.32;64.65;;;8.90;99.90;;;;;;4989999;28;20084;-48
2023/10/21 02:42:41;;;;;;;175.27;57.72;;;8.90;99.90;;;;;;4990022;28;20049;-49
2023/10/21 02:45:07;;;;;;;165.15;55.22;;;8.90;99.90;;;;;;4990233;28;20076;-49
2023/10/21 02:47:35;;;;;;;189.50;60.33;;;8.90;99.90;;;;;;4989449;28;20544;-50
2023/10/21 02:50:01;;;;;;;207.88;59.55;;;8.90;99.90;;;;;;4990008;28;20328;-47
2023/10/21 02:52:27;;;;;;;165.73;55.55;;;8.90;99.90;;;;;;4989721;28;20046;-49
2023/10/21 02:54:52;;;;;;;152.20;51.15;;;8.90;99.90;;;;;;4989545;28;20419;-49
2023/10/21 02:57:18;;;;;;;191.70;55.10;;;9.00;99.90;;;;;;4989502;28;20042;-49
2023/10/21 02:59:43;;;;;;;148.82;49.95;;;8.90;99.90;;;;;;4989748;28;20031;-49
2023/10/21 03:02:09;;;;;;;169.30;57.70;;;9.00;99.90;;;;;;4989567;28;20613;-50
2023/10/21 03:04:35;;;;;;;127.28;48.15;;;9.00;99.90;;;;;;4989437;28;20034;-50
2023/10/21 03:07:01;;;;;;;251.40;64.70;;;9.00;99.90;;;;;;4989561;28;20018;-50
2023/10/21 03:09:27;;;;;;;175.52;57.63;;;9.00;99.90;;;;;;4989594;28;20037;-50
2023/10/21 03:11:53;;;;;;;165.88;57.15;;;9.00;99.90;;;;;;4989897;28;20027;-46
2023/10/21 03:14:18;;;;;;;210.40;59.70;;;9.00;99.90;;;;;;4989512;28;20259;-48
2023/10/21 03:16:44;;;;;;;186.55;58.10;;;9.00;99.90;;;;;;4989397;28;20061;-49
2023/10/21 03:19:10;;;;;;;192.52;61.83;;;9.00;99.90;;;;;;4989843;28;20049;-49
2023/10/21 03:21:35;;;;;;;178.05;60.10;;;9.00;99.90;;;;;;4989649;28;20104;-58
2023/10/21 03:24:01;;;;;;;140.27;50.08;;;9.00;99.90;;;;;;4989411;28;20550;-58
2023/10/21 03:26:26;;;;;;;185.80;58.00;;;9.00;99.90;;;;;;4990067;28;20080;-58
2023/10/21 03:28:52;;;;;;;176.60;57.65;;;9.00;99.90;;;;;;4993251;28;20022;-58
2023/10/21 03:31:17;;;;;;;182.05;57.92;;;9.00;99.90;;;;;;4993290;28;20022;-58
2023/10/21 03:33:44;;;;;;;157.38;54.50;;;9.00;99.90;;;;;;4993793;28;20022;-58
2023/10/21 03:36:09;;;;;;;187.43;57.22;;;9.00;99.90;;;;;;4992947;28;20615;-58
2023/10/21 03:38:35;;;;;;;180.52;57.47;;;9.00;99.90;;;;;;4993108;28;20049;-58
2023/10/21 03:41:09;;;;;;;149.38;53.58;;;9.00;99.90;;;;;;4992995;28;20480;-58
2023/10/21 03:43:34;;;;;;;173.05;58.00;;;9.00;99.90;;;;;;4975221;28;20117;-58
2023/10/21 03:46:08;;;;;;;164.07;51.90;;;9.10;99.90;;;;;;4992556;28;20026;-58
2023/10/21 03:48:34;;;;;;;136.32;48.75;;;9.00;99.90;;;;;;4992819;28;20472;-58
2023/10/21 03:51:09;;;;;;;121.95;45.40;;;9.00;99.90;;;;;;4992663;28;20030;-58
2023/10/21 03:53:35;;;;;;;143.98;51.35;;;9.10;99.90;;;;;;4975212;28;20030;-58
2023/10/21 03:56:02;;;;;;;130.27;47.45;;;9.10;99.90;;;;;;4992443;28;20089;-59
2023/10/21 03:58:28;;;;;;;157.40;51.10;;;9.10;99.90;;;;;;4992362;28;20034;-59
2023/10/21 04:00:55;;;;;;;119.20;45.33;;;9.10;99.90;;;;;;4974999;28;20369;-59
2023/10/21 04:03:20;;;;;;;115.90;45.42;;;9.10;99.90;;;;;;4992242;28;20487;-59
2023/10/21 04:05:46;;;;;;;95.38;38.85;;;9.10;99.90;;;;;;4992119;28;20027;-59
2023/10/21 04:08:12;;;;;;;91.15;37.60;;;9.10;99.90;;;;;;4992417;28;20066;-59
2023/10/21 04:10:37;;;;;;;152.43;51.90;;;9.20;99.90;;;;;;4992450;28;20215;-59
2023/10/21 04:13:03;;;;;;;133.77;49.63;;;9.20;99.90;;;;;;4992013;28;20030;-59
2023/10/21 04:15:29;;;;;;;125.80;46.10;;;9.10;99.90;;;;;;4991760;28;20069;-59
2023/10/21 04:17:55;;;;;;;116.63;43.17;;;9.20;99.90;;;;;;4975014;28;20026;-59
2023/10/21 04:20:21;;;;;;;98.63;37.85;;;9.20;99.90;;;;;;4992212;28;20089;-59
2023/10/21 04:22:47;;;;;;;162.52;51.20;;;9.20;99.90;;;;;;4992184;28;20320;-59
2023/10/21 04:25:13;;;;;;;133.88;45.95;;;9.20;99.90;;;;;;4991906;28;20535;-59
2023/10/21 04:27:38;;;;;;;106.53;42.05;;;9.20;99.90;;;;;;4991635;28;20084;-59
2023/10/21 04:30:04;;;;;;;125.63;46.38;;;9.20;99.90;;;;;;4992149;28;20080;-59
2023/10/21 04:32:31;;;;;;;140.98;49.22;;;9.20;99.90;;;;;;4992382;28;20026;-59
2023/10/21 04:34:57;;;;;;;153.52;45.88;;;9.20;99.90;;;;;;4991875;28;20102;-59
2023/10/21 04:37:22;;;;;;;142.15;44.92;;;9.20;99.90;;;;;;4974192;28;20037;-59
2023/10/21 04:39:48;;;;;;;111.25;40.85;;;9.20;99.90;;;;;;4991932;28;20034;-58
2023/10/21 04:42:13;;;;;;;130.70;46.58;;;9.20;99.90;;;;;;4991456;28;20096;-59
2023/10/21 04:44:39;;;;;;;102.25;37.80;;;9.20;99.90;;;;;;4984422;28;20033;-59
2023/10/21 04:47:05;;;;;;;92.63;34.55;;;9.20;99.90;;;;;;4983700;28;20527;-59
2023/10/21 04:49:30;;;;;;;81.68;34.22;;;9.30;99.90;;;;;;4987019;28;20022;-59
2023/10/21 04:51:56;;;;;;;96.65;40.70;;;9.30;99.90;;;;;;4983254;28;20034;-59
2023/10/21 04:54:22;;;;;;;136.27;47.60;;;9.30;99.90;;;;;;4985415;28;20018;-59
2023/10/21 04:56:47;;;;;;;119.93;43.88;;;9.20;99.90;;;;;;4984206;28;20062;-59
2023/10/21 04:59:13;;;;;;;77.82;34.45;;;9.30;99.90;;;;;;4984527;28;20118;-59
2023/10/21 05:01:38;;;;;;;118.60;45.47;;;9.30;99.90;;;;;;4986083;28;20102;-60
2023/10/21 05:04:04;;;;;;;119.68;45.90;;;9.30;99.90;;;;;;4973704;28;20026;-59
2023/10/21 05:06:30;;;;;;;82.60;37.72;;;9.30;99.90;;;;;;4985174;28;20047;-59
2023/10/21 05:08:56;;;;;;;106.05;41.08;;;9.30;99.90;;;;;;4985080;28;20021;-59
2023/10/21 05:11:21;;;;;;;80.80;34.17;;;9.30;99.90;;;;;;4983332;28;20031;-59
2023/10/21 05:13:47;;;;;;;77.63;33.35;;;9.30;99.90;;;;;;4988089;28;20033;-59
2023/10/21 05:16:12;;;;;;;79.22;35.25;;;9.40;99.90;;;;;;4982631;28;20475;-59
2023/10/21 05:18:38;;;;;;;99.38;39.33;;;9.40;99.90;;;;;;4984983;28;20026;-59
2023/10/21 05:21:07;;;;;;;79.57;34.78;;;9.40;99.90;;;;;;4984028;28;20046;-59
2023/10/21 05:23:33;;;;;;;83.53;35.33;;;9.40;99.90;;;;;;4986817;28;20038;-59
2023/10/21 05:25:58;;;;;;;108.28;41.13;;;9.40;99.90;;;;;;4990454;28;20022;-59
2023/10/21 05:28:24;;;;;;;91.82;38.08;;;9.40;99.90;;;;;;4991049;28;20041;-59
2023/10/21 05:30:50;;;;;;;91.50;38.10;;;9.50;99.90;;;;;;4972905;28;20026;-59
2023/10/21 05:33:16;;;;;;;85.65;38.60;;;9.40;99.90;;;;;;4991070;28;20371;-59
2023/10/21 05:35:41;;;;;;;80.25;36.30;;;9.50;99.90;;;;;;4990490;28;20122;-59
2023/10/21 05:38:07;;;;;;;90.53;36.38;;;9.50;99.90;;;;;;4985622;28;20034;-60
2023/10/21 05:40:32;;;;;;;84.28;34.67;;;9.50;99.90;;;;;;4984056;28;20244;-59
2023/10/21 05:42:58;;;;;;;108.85;43.55;;;9.40;99.90;;;;;;4984331;28;20050;-59
2023/10/21 05:45:23;;;;;;;84.15;36.50;;;9.40;99.90;;;;;;4982636;28;20027;-59
2023/10/21 05:47:49;;;;;;;71.95;33.65;;;9.50;99.90;;;;;;4972691;28;20357;-59
2023/10/21 05:50:19;;;;;;;70.80;32.97;;;9.50;99.90;;;;;;4975871;28;20026;-59
2023/10/21 05:52:45;;;;;;;80.23;35.40;;;9.50;99.90;;;;;;4990514;28;20048;-59
2023/10/21 05:55:11;;;;;;;91.05;37.72;;;9.50;99.90;;;;;;4990420;28;20739;-59
2023/10/21 05:57:36;;;;;;;80.72;34.55;;;9.50;99.90;;;;;;4972475;28;20172;-59
2023/10/21 06:00:05;;;;;;;88.38;37.85;;;9.60;99.90;;;;;;4990670;28;20026;-59
2023/10/21 06:02:32;;;;;;;93.70;37.35;;;9.60;99.90;;;;;;4989995;28;20041;-59
2023/10/21 06:04:58;;;;;;;97.80;42.17;;;9.60;99.90;;;;;;4990211;28;20387;-58
2023/10/21 06:07:23;;;;;;;96.80;39.78;;;9.60;99.90;;;;;;4990044;28;20018;-58
2023/10/21 06:09:49;;;;;;;105.45;42.22;;;9.60;99.90;;;;;;4990236;28;20452;-58
2023/10/21 06:12:15;;;;;;;94.43;41.40;;;9.70;99.90;;;;;;4972647;28;20022;-58
2023/10/21 06:14:40;;;;;;;85.47;37.30;;;9.70;99.90;;;;;;4989817;28;20084;-58
2023/10/21 06:17:06;;;;;;;90.43;37.22;;;9.70;99.90;;;;;;4972784;28;20030;-59
2023/10/21 06:19:32;;;;;;;68.90;31.90;;;9.70;99.90;;;;;;4989991;28;20029;-58
2023/10/21 06:21:58;;;;;;;84.55;39.53;;;9.80;99.90;;;;;;4989627;28;20022;-59
2023/10/21 06:24:24;;;;;;;105.95;40.22;;;9.80;99.90;;;;;;4989952;28;20381;-58
2023/10/21 06:26:49;;;;;;;137.35;47.15;;;9.80;99.90;;;;;;4990243;28;20084;-58
2023/10/21 06:29:14;;;;;;;84.85;36.67;;;9.80;99.90;;;;;;4990060;28;20022;-58
2023/10/21 06:31:40;;;;;;;127.63;46.55;;;9.80;99.90;;;;;;4989996;28;20113;-59
2023/10/21 06:34:06;;;;;;;113.90;44.08;;;9.90;99.90;;;;;;4989783;28;20044;-59
2023/10/21 06:36:31;;;;;;;102.03;40.60;;;9.90;99.90;;;;;;4989441;28;20344;-59
2023/10/21 06:38:57;;;;;;;141.25;51.45;;;9.90;99.90;;;;;;4989852;28;20022;-58
2023/10/21 06:41:23;;;;;;;106.97;43.20;;;9.90;99.90;;;;;;4988997;28;20023;-58
2023/10/21 06:43:49;;;;;;;110.93;42.58;;;9.90;99.90;;;;;;4989739;28;20046;-58
2023/10/21 06:46:15;;;;;;;127.45;47.67;;;9.90;99.90;;;;;;4989620;28;20026;-58
2023/10/21 06:48:41;;;;;;;152.77;51.25;;;9.90;99.90;;;;;;4989950;28;20089;-58
2023/10/21 06:51:06;;;;;;;102.97;41.25;;;10.00;99.90;;;;;;4990131;28;20504;-60
2023/10/21 06:53:32;;;;;;;98.57;42.03;;;10.00;99.90;;;;;;4989553;28;20022;-59
2023/10/21 06:55:58;;;;;;;84.18;34.95;;;9.90;99.90;;;;;;4989405;28;20061;-59
2023/10/21 06:58:26;;;;;;;151.88;51.72;;;10.00;99.90;;;;;;4989452;28;20127;-59
2023/10/21 07:00:51;;;;;;;109.47;42.92;;;10.00;99.90;;;;;;4990035;28;20030;-59
2023/10/21 07:03:17;;;;;;;155.35;53.72;;;10.00;99.90;;;;;;4992948;28;20030;-59
2023/10/21 07:05:42;;;;;;;129.25;49.67;;;10.00;99.90;;;;;;4993260;28;20117;-59
2023/10/21 07:08:08;;;;;;;109.20;43.30;;;10.10;99.90;;;;;;4993565;28;20027;-59
2023/10/21 07:10:34;;;;;;;199.93;58.00;;;10.10;99.90;;;;;;4993213;28;20037;-59
2023/10/21 07:13:00;;;;;;;125.97;46.28;;;10.10;99.90;;;;;;4993251;28;20014;-59
2023/10/21 07:15:29;;;;;;;135.95;48.65;;;10.20;99.90;;;;;;4993073;28;20038;-59
2023/10/21 07:17:56;;;;;;;150.05;50.25;;;10.20;99.90;;;;;;4993907;28;20097;-59
2023/10/21 07:20:22;;;;;;;130.02;50.35;;;10.20;99.90;;;;;;4992992;28;20027;-59
2023/10/21 07:22:49;;;;;;;156.15;51.75;;;10.20;99.90;;;;;;4993189;28;20026;-59
2023/10/21 07:25:15;;;;;;;123.70;46.65;;;10.20;99.90;;;;;;4993326;28;20026;-59
2023/10/21 07:27:41;;;;;;;191.20;57.15;;;10.20;99.90;;;;;;4992985;28;20097;-59
2023/10/21 07:30:07;;;;;;;165.05;53.75;;;10.30;99.90;;;;;;4992920;28;20030;-59
2023/10/21 07:32:33;;;;;;;123.38;44.50;;;10.30;99.90;;;;;;4992632;28;20033;-59
2023/10/21 07:34:58;;;;;;;137.65;49.50;;;10.30;99.90;;;;;;4992502;28;20027;-59
2023/10/21 07:37:24;;;;;;;107.82;41.38;;;10.30;99.90;;;;;;4992418;28;20053;-59
2023/10/21 07:39:49;;;;;;;118.38;44.35;;;10.40;99.90;;;;;;4959211;28;20409;-59
2023/10/21 07:42:15;;;;;;;118.03;43.33;;;10.40;99.90;;;;;;4993005;28;20066;-59
2023/10/21 07:44:41;;;;;;;122.22;44.35;;;10.40;99.90;;;;;;4992544;28;20061;-59
2023/10/21 07:47:07;;;;;;;110.35;41.47;;;10.50;99.90;;;;;;4992686;28;20141;-59
2023/10/21 07:49:33;;;;;;;170.27;55.60;;;10.60;99.90;;;;;;4992653;28;20075;-59
2023/10/21 07:51:58;;;;;;;122.55;45.47;;;10.60;99.90;;;;;;4992954;28;20101;-59
2023/10/21 07:54:24;;;;;;;182.20;60.10;;;10.60;99.90;;;;;;4992759;28;20026;-59
2023/10/21 07:56:52;;;;;;;118.15;43.53;;;10.70;99.90;;;;;;4975513;28;20037;-59
2023/10/21 07:59:18;;;;;;;229.18;60.67;;;10.70;99.90;;;;;;4992645;28;20030;-59
2023/10/21 08:01:43;;;;;;;112.50;43.85;;;10.80;99.90;;;;;;4992599;28;20085;-59
2023/10/21 08:04:09;;;;;;;111.22;42.55;;;10.90;99.90;;;;;;4992274;28;20462;-59
2023/10/21 08:06:34;;;;;;;125.38;44.50;;;10.90;99.90;;;;;;4992121;28;20392;-59
2023/10/21 08:09:00;;;;;;;116.20;46.45;;;11.10;99.90;;;;;;4992545;28;20026;-59
2023/10/21 08:11:27;;;;;;;92.03;38.60;;;11.10;99.90;;;;;;4992430;28;20053;-59
2023/10/21 08:13:53;;;;;;;86.35;37.72;;;11.20;99.90;;;;;;4974339;28;20025;-59
2023/10/21 08:16:18;;;;;;;80.72;35.90;;;11.20;99.90;;;;;;4991928;28;20030;-59
2023/10/21 08:18:44;;;;;;;83.18;36.95;;;11.30;99.90;;;;;;4992275;28;20444;-59
2023/10/21 08:21:09;;;;;;;83.93;36.83;;;11.30;99.90;;;;;;4992347;28;20038;-59
2023/10/21 08:23:35;;;;;;;105.00;43.30;;;11.40;99.90;;;;;;4992355;28;20038;-59
2023/10/21 08:26:01;;;;;;;92.30;39.42;;;11.40;99.90;;;;;;4991909;28;20022;-59
2023/10/21 08:28:26;;;;;;;88.47;36.67;;;11.40;99.90;;;;;;4992048;28;20435;-59
2023/10/21 08:30:52;;;;;;;71.75;32.88;;;11.50;99.90;;;;;;4992223;28;20446;-59
2023/10/21 08:33:18;;;;;;;81.30;34.33;;;11.50;99.90;;;;;;4991763;28;20022;-59
2023/10/21 08:35:43;;;;;;;78.30;33.80;;;11.50;99.90;;;;;;4991572;28;20023;-59
2023/10/21 08:38:09;;;;;;;73.80;33.15;;;11.50;99.90;;;;;;4991988;28;20038;-59
2023/10/21 08:40:38;;;;;;;76.90;35.00;;;11.50;99.90;;;;;;4992099;28;20022;-59
2023/10/21 08:43:05;;;;;;;75.63;35.45;;;11.60;99.90;;;;;;4991883;28;20108;-59
2023/10/21 08:45:35;;;;;;;87.55;37.35;;;11.70;99.90;;;;;;4991377;28;20023;-59
2023/10/21 08:48:01;;;;;;;96.78;37.30;;;11.70;99.90;;;;;;4992313;28;20512;-59
2023/10/21 08:50:27;;;;;;;63.22;31.48;;;11.80;99.90;;;;;;4991775;28;20037;-59
2023/10/21 08:52:56;;;;;;;71.05;32.25;;;11.90;99.90;;;;;;4991609;28;20299;-59
2023/10/21 08:55:23;;;;;;;75.60;32.70;;;12.10;99.90;;;;;;4991497;28;20121;-59
2023/10/21 08:57:48;;;;;;;73.25;31.25;;;12.20;99.90;;;;;;4991394;28;20038;-59
2023/10/21 09:00:15;;;;;;;59.75;28.83;;;12.30;99.90;;;;;;4991734;28;20117;-59
2023/10/21 09:02:40;;;;;;;46.38;26.08;;;12.40;99.90;;;;;;4974074;28;20026;-59
2023/10/21 09:05:10;;;;;;;80.25;29.88;;;12.50;99.90;;;;;;4991182;28;20037;-59
2023/10/21 09:07:47;;;;;;;64.63;25.95;;;12.50;99.90;;;;;;4991447;28;20030;-59
2023/10/21 09:10:13;;;;;;;61.50;24.35;;;12.70;99.90;;;;;;4991348;28;20019;-60
2023/10/21 09:12:39;;;;;;;32.30;18.75;;;12.80;99.90;;;;;;4991195;28;20026;-57
2023/10/21 09:15:05;;;;;;;34.97;19.33;;;12.90;99.90;;;;;;4991116;28;20553;-57
2023/10/21 09:17:42;;;;;;;35.50;16.40;;;13.00;99.90;;;;;;4973412;28;20042;-57
2023/10/21 09:20:13;;;;;;;27.17;16.10;;;13.10;99.90;;;;;;4991184;28;20479;-60
2023/10/21 09:22:43;;;;;;;25.13;12.77;;;13.60;99.90;;;;;;4991021;28;20033;-60
2023/10/21 09:25:19;;;;;;;18.08;8.93;;;14.10;99.90;;;;;;4990317;28;20093;-60
2023/10/21 09:27:53;;;;;;;12.90;8.40;;;14.20;99.90;;;;;;4990836;28;20068;-60
2023/10/21 09:30:20;;;;;;;10.85;7.70;;;14.20;99.90;;;;;;4991075;28;20041;-60
2023/10/21 09:32:46;;;;;;;9.45;6.93;;;14.00;99.90;;;;;;4990863;28;20109;-60
2023/10/21 09:35:14;;;;;;;13.00;6.10;;;14.00;99.90;;;;;;4973344;28;20065;-60
2023/10/21 09:37:40;;;;;;;8.10;6.15;;;13.80;99.90;;;;;;4990705;28;20519;-60
2023/10/21 09:40:06;;;;;;;6.80;6.03;;;13.80;99.90;;;;;;4991144;28;20039;-60
2023/10/21 09:42:36;;;;;;;5.78;4.65;;;13.90;99.90;;;;;;4990730;28;20034;-60
2023/10/21 09:45:03;;;;;;;5.40;4.50;;;14.60;99.90;;;;;;4990603;28;20018;-60
2023/10/21 09:47:31;;;;;;;6.32;4.38;;;16.20;99.90;;;;;;4990317;28;20623;-60
2023/10/21 09:49:58;;;;;;;3.45;2.50;;;18.20;99.90;;;;;;4990559;28;20053;-61
2023/10/21 09:52:31;;;;;;;3.40;2.55;;;19.00;99.90;;;;;;4990722;28;20052;-61
2023/10/21 09:55:10;;;;;;;3.28;2.25;;;18.70;99.90;;;;;;4990375;28;20531;-61
2023/10/21 09:57:38;;;;;;;1.92;1.70;;;18.70;99.90;;;;;;4990291;28;20096;-60
2023/10/21 10:00:08;;;;;;;2.10;1.90;;;19.20;99.90;;;;;;4990530;28;20114;-61
2023/10/21 10:02:38;;;;;;;1.70;1.38;;;20.40;99.90;;;;;;4990399;28;20035;-60
2023/10/21 10:05:08;;;;;;;3.55;1.25;;;21.10;99.90;;;;;;4990177;28;20129;-61
2023/10/21 10:07:39;;;;;;;2.20;1.40;;;22.10;99.90;;;;;;4990418;28;20388;-60
2023/10/21 10:10:06;;;;;;;1.65;1.10;;;23.10;99.90;;;;;;4990464;28;20040;-59
2023/10/21 10:12:46;;;;;;;1.23;0.90;;;23.80;99.90;;;;;;4990121;28;20084;-58
2023/10/21 10:15:28;;;;;;;1.73;0.70;;;25.00;99.90;;;;;;4972613;28;20032;-59
2023/10/21 10:17:54;;;;;;;4.78;0.90;;;25.30;97.70;;;;;;4990083;28;20058;-58
2023/10/21 10:20:24;;;;;;;2.60;0.75;;;26.00;95.90;;;;;;4990472;28;20053;-58
2023/10/21 10:22:58;;;;;;;2.70;1.73;;;26.50;95.30;;;;;;4990265;28;20463;-59
2023/10/21 10:25:45;;;;;;;1.38;0.90;;;26.40;94.20;;;;;;4990157;28;20097;-58
2023/10/21 10:28:27;;;;;;;1.10;0.77;;;26.00;93.00;;;;;;4990393;28;20089;-58
2023/10/21 10:31:00;;;;;;;1.88;0.75;;;25.70;93.80;;;;;;4990538;28;20460;-58
2023/10/21 10:33:34;;;;;;;1.10;0.60;;;26.10;93.10;;;;;;4989891;28;20030;-58
2023/10/21 10:36:00;;;;;;;0.85;0.70;;;26.30;94.00;;;;;;4989537;28;20101;-59
2023/10/21 10:38:32;;;;;;;0.85;0.65;;;26.90;92.10;;;;;;4989838;28;20029;-58
2023/10/21 10:41:11;;;;;;;2.55;0.85;;;27.80;91.70;;;;;;4990065;28;20454;-59
2023/10/21 10:43:43;;;;;;;2.22;0.80;;;27.30;90.80;;;;;;4989713;28;20027;-58
2023/10/21 10:46:09;;;;;;;1.80;0.60;;;27.80;90.30;;;;;;4989539;28;20038;-58
2023/10/21 10:48:35;;;;;;;2.45;0.70;;;27.90;88.60;;;;;;4972523;28;20064;-58
2023/10/21 10:51:10;;;;;;;1.15;0.50;;;27.50;89.40;;;;;;4990124;28;20050;-59
2023/10/21 10:53:36;;;;;;;1.27;0.80;;;27.70;89.70;;;;;;4989810;28;20026;-58
2023/10/21 10:56:01;;;;;;;1.63;0.63;;;28.10;86.80;;;;;;4989775;28;20089;-58
2023/10/21 10:58:27;;;;;;;2.05;0.70;;;28.20;88.30;;;;;;4989773;28;20038;-58
2023/10/21 11:00:53;;;;;;;1.60;0.75;;;28.30;85.80;;;;;;4989829;28;20023;-58
2023/10/21 11:03:36;;;;;;;0.80;0.70;;;28.90;85.80;;;;;;4989483;28;20038;-59
2023/10/21 11:06:03;;;;;;;1.63;0.60;;;29.20;85.70;;;;;;4989584;28;20046;-59
2023/10/21 11:08:30;;;;;;;1.05;0.68;;;29.20;82.70;;;;;;4989973;28;20042;-58
2023/10/21 11:11:05;;;;;;;0.85;0.57;;;29.10;82.80;;;;;;4990158;28;20378;-58
2023/10/21 11:13:32;;;;;;;1.70;0.65;;;29.50;82.20;;;;;;4989520;28;20019;-58
2023/10/21 11:15:58;;;;;;;0.75;0.45;;;28.90;81.10;;;;;;4989373;28;20101;-58
2023/10/21 11:18:26;;;;;;;0.63;0.50;;;28.10;83.30;;;;;;4989483;28;20126;-58
2023/10/21 11:20:52;;;;;;;1.73;0.60;;;27.80;81.70;;;;;;4989477;28;20034;-58
2023/10/21 11:23:19;;;;;;;0.82;0.60;;;27.10;82.20;;;;;;4989359;28;20111;-58
2023/10/21 11:25:53;;;;;;;1.27;0.45;;;27.90;82.60;;;;;;4989188;28;20033;-58
2023/10/21 11:28:19;;;;;;;0.68;0.50;;;27.90;82.70;;;;;;4972186;28;20049;-58
2023/10/21 11:30:46;;;;;;;0.60;0.38;;;27.90;81.90;;;;;;4989423;28;20037;-58
2023/10/21 11:33:12;;;;;;;0.80;0.60;;;28.10;80.90;;;;;;4972048;28;20033;-58
2023/10/21 11:35:39;;;;;;;2.20;0.40;;;28.30;83.00;;;;;;4989222;28;20042;-58
2023/10/21 11:38:06;;;;;;;0.40;0.38;;;28.30;81.80;;;;;;4989639;28;20034;-59
2023/10/21 11:40:34;;;;;;;2.65;0.70;;;28.60;81.00;;;;;;4971911;28;20034;-58
2023/10/21 11:43:01;;;;;;;0.60;0.60;;;29.00;80.70;;;;;;4989211;28;20370;-59
2023/10/21 11:45:30;;;;;;;0.60;0.57;;;29.00;78.80;;;;;;4989055;28;20031;-58
2023/10/21 11:47:58;;;;;;;0.60;0.50;;;28.90;80.60;;;;;;4973588;28;20446;-59
2023/10/21 11:50:24;;;;;;;0.73;0.65;;;29.00;78.00;;;;;;4992967;28;20030;-58
2023/10/21 11:52:51;;;;;;;0.45;0.45;;;27.60;78.90;;;;;;4992907;28;20027;-58
2023/10/21 11:55:38;;;;;;;0.70;0.50;;;25.90;84.20;;;;;;4992558;28;20027;-58
2023/10/21 12:07:05;;;;;;;0.93;0.70;;;21.60;92.90;;;;;;4992470;28;20085;-60
2023/10/21 12:22:19;;;;;;;2.03;0.77;;;19.90;99.90;;;;;;4992742;28;20231;-60
2023/10/21 12:25:12;;;;;;;2.78;0.88;;;20.00;99.90;;;;;;4992432;28;20038;-60
2023/10/21 12:30:43;;;;;;;0.90;0.70;;;21.00;99.20;;;;;;4992174;28;20077;-60
2023/10/21 12:43:38;;;;;;;1.40;0.40;;;19.70;98.90;;;;;;4991867;28;20400;-60
2023/10/21 12:46:19;;;;;;;0.60;0.52;;;19.90;98.90;;;;;;4974038;28;20146;-60
2023/10/21 12:48:48;;;;;;;0.75;0.70;;;19.90;97.80;;;;;;4991811;28;20030;-60
2023/10/21 12:51:16;;;;;;;1.17;0.80;;;20.10;98.00;;;;;;4974296;28;20216;-60
2023/10/21 12:53:42;;;;;;;2.15;0.80;;;20.20;97.10;;;;;;4974017;28;20015;-58
2023/10/21 12:56:08;;;;;;;0.85;0.70;;;20.30;96.20;;;;;;4991441;28;20095;-58
2023/10/21 12:58:34;;;;;;;1.73;0.80;;;20.50;96.90;;;;;;4990953;28;20117;-58
2023/10/21 13:01:00;;;;;;;0.98;0.70;;;20.60;96.40;;;;;;4991222;28;20113;-58
2023/10/21 13:03:26;;;;;;;2.65;0.80;;;20.70;96.30;;;;;;4991356;28;20026;-58
2023/10/21 13:05:52;;;;;;;2.00;0.70;;;20.70;95.70;;;;;;4991068;28;20369;-58